QFA772 PANC-PACD
Flight info
| Callsign | QFA772 |
|---|---|
| Flight time | 1h 32m |
| Altitude | 36000 |
| Route | ENA J115 CDB |
| Aircraft | B738/M-L/LB1 |
Departure
| Time | 2026-05-09 10:51 |
|---|---|
| Airport | Ted Stevens Anchorage International Airport (PANC) |
Arrival
| Time | 2026-05-09 12:23 |
|---|---|
| Airport | Cold Bay Airport (PACD) |
| Time | Latitude | Longitude | Altitude | Speed | Heading |
|---|---|---|---|---|---|
| 2026-05-09 09:14 | 61.17209 | -149.97869 | 160 ft | 0 kts | 45° |
| 2026-05-09 10:39 | 61.17208 | -149.97871 | 160 ft | 1 kts | 45° |
| 2026-05-09 10:40 | 61.17199 | -149.97890 | 160 ft | 3 kts | 45° |
| 2026-05-09 10:40 | 61.17186 | -149.97918 | 160 ft | 3 kts | 45° |
| 2026-05-09 10:40 | 61.17171 | -149.97948 | 160 ft | 3 kts | 45° |
| 2026-05-09 10:40 | 61.17159 | -149.97973 | 160 ft | 2 kts | 45° |
| 2026-05-09 10:41 | 61.17148 | -149.97995 | 160 ft | 3 kts | 38° |
| 2026-05-09 10:41 | 61.17131 | -149.98015 | 160 ft | 3 kts | 20° |
| 2026-05-09 10:41 | 61.17111 | -149.98024 | 160 ft | 3 kts | 3° |
| 2026-05-09 10:41 | 61.17103 | -149.98024 | 160 ft | 0 kts | 357° |
| 2026-05-09 10:43 | 61.17105 | -149.98024 | 160 ft | 0 kts | 356° |
| 2026-05-09 10:43 | 61.17106 | -149.98025 | 160 ft | 1 kts | 352° |
| 2026-05-09 10:43 | 61.17116 | -149.98066 | 160 ft | 8 kts | 281° |
| 2026-05-09 10:44 | 61.17123 | -149.98249 | 160 ft | 13 kts | 272° |
| 2026-05-09 10:44 | 61.17123 | -149.98414 | 160 ft | 10 kts | 270° |
| 2026-05-09 10:44 | 61.17124 | -149.98541 | 160 ft | 8 kts | 270° |
| 2026-05-09 10:44 | 61.17124 | -149.98667 | 160 ft | 10 kts | 270° |
| 2026-05-09 10:45 | 61.17124 | -149.98808 | 160 ft | 10 kts | 270° |
| 2026-05-09 10:46 | 61.17123 | -149.99419 | 160 ft | 11 kts | 270° |
| 2026-05-09 10:46 | 61.17123 | -149.99570 | 160 ft | 10 kts | 270° |
| 2026-05-09 10:46 | 61.17123 | -149.99676 | 160 ft | 1 kts | 270° |
| 2026-05-09 10:46 | 61.17123 | -149.99678 | 160 ft | 0 kts | 270° |
| 2026-05-09 10:47 | 61.17123 | -149.99680 | 160 ft | 1 kts | 270° |
| 2026-05-09 10:47 | 61.17123 | -149.99686 | 160 ft | 0 kts | 270° |
| 2026-05-09 10:47 | 61.17123 | -149.99698 | 160 ft | 1 kts | 270° |
| 2026-05-09 10:48 | 61.17124 | -149.99736 | 160 ft | 11 kts | 271° |
| 2026-05-09 10:48 | 61.17161 | -149.99876 | 160 ft | 10 kts | 330° |
| 2026-05-09 10:48 | 61.17193 | -149.99899 | 160 ft | 0 kts | 345° |
| 2026-05-09 10:49 | 61.17194 | -149.99899 | 160 ft | 0 kts | 345° |
| 2026-05-09 10:50 | 61.17404 | -150.00016 | 160 ft | 73 kts | 345° |
| 2026-05-09 10:50 | 61.18150 | -150.00434 | 161 ft | 146 kts | 345° |
| 2026-05-09 10:50 | 61.19266 | -150.01060 | 574 ft | 172 kts | 345° |
| 2026-05-09 10:51 | 61.20463 | -150.01736 | 1349 ft | 187 kts | 345° |
| 2026-05-09 10:51 | 61.21777 | -150.02470 | 2114 ft | 204 kts | 345° |
| 2026-05-09 10:51 | 61.23235 | -150.02447 | 2797 ft | 222 kts | 20° |
| 2026-05-09 10:51 | 61.24387 | -150.00362 | 3633 ft | 231 kts | 60° |
| 2026-05-09 10:52 | 61.25062 | -149.97313 | 4588 ft | 235 kts | 66° |
| 2026-05-09 10:52 | 61.25252 | -149.93923 | 5376 ft | 248 kts | 101° |
| 2026-05-09 10:52 | 61.24385 | -149.90791 | 6139 ft | 260 kts | 137° |
| 2026-05-09 10:52 | 61.22756 | -149.89092 | 7029 ft | 268 kts | 162° |
| 2026-05-09 10:53 | 61.20911 | -149.88326 | 7929 ft | 273 kts | 173° |
| 2026-05-09 10:53 | 61.18993 | -149.88235 | 8829 ft | 278 kts | 182° |
| 2026-05-09 10:53 | 61.17077 | -149.88577 | 9716 ft | 281 kts | 184° |
| 2026-05-09 10:53 | 61.15083 | -149.89026 | 10314 ft | 297 kts | 185° |
| 2026-05-09 10:54 | 61.13028 | -149.90073 | 10811 ft | 315 kts | 206° |
| 2026-05-09 10:54 | 61.11339 | -149.93114 | 11393 ft | 333 kts | 230° |
| 2026-05-09 10:54 | 61.10358 | -149.97509 | 12178 ft | 345 kts | 250° |
| 2026-05-09 10:54 | 61.09554 | -150.02224 | 12853 ft | 350 kts | 237° |
| 2026-05-09 10:55 | 61.08218 | -150.06408 | 13768 ft | 349 kts | 227° |
| 2026-05-09 10:55 | 61.06649 | -150.10227 | 14734 ft | 349 kts | 225° |
| 2026-05-09 10:55 | 61.05067 | -150.13959 | 15660 ft | 351 kts | 225° |
| 2026-05-09 10:55 | 61.03388 | -150.17631 | 16549 ft | 352 kts | 220° |
| 2026-05-09 10:56 | 61.01624 | -150.21153 | 17496 ft | 354 kts | 222° |
| 2026-05-09 10:56 | 60.99949 | -150.24924 | 18359 ft | 358 kts | 224° |
| 2026-05-09 10:56 | 60.98366 | -150.28930 | 19209 ft | 364 kts | 229° |
| 2026-05-09 10:56 | 60.96885 | -150.33191 | 20002 ft | 369 kts | 230° |
| 2026-05-09 10:57 | 60.95426 | -150.37564 | 20768 ft | 372 kts | 231° |
| 2026-05-09 10:57 | 60.93985 | -150.41943 | 21495 ft | 376 kts | 231° |
| 2026-05-09 10:57 | 60.92513 | -150.46424 | 22213 ft | 380 kts | 231° |
| 2026-05-09 10:57 | 60.91027 | -150.50941 | 22920 ft | 383 kts | 231° |
| 2026-05-09 10:58 | 60.89532 | -150.55482 | 23595 ft | 386 kts | 231° |
| 2026-05-09 10:58 | 60.88019 | -150.60077 | 24251 ft | 389 kts | 231° |
| 2026-05-09 10:58 | 60.86500 | -150.64687 | 24867 ft | 392 kts | 231° |
| 2026-05-09 10:58 | 60.84955 | -150.69333 | 25453 ft | 395 kts | 230° |
| 2026-05-09 10:59 | 60.83310 | -150.73873 | 25993 ft | 398 kts | 228° |
| 2026-05-09 10:59 | 60.81614 | -150.78373 | 26548 ft | 400 kts | 227° |
| 2026-05-09 10:59 | 60.79918 | -150.82822 | 27068 ft | 403 kts | 227° |
| 2026-05-09 10:59 | 60.78183 | -150.87351 | 27571 ft | 406 kts | 227° |
| 2026-05-09 11:00 | 60.76430 | -150.91900 | 28040 ft | 408 kts | 227° |
| 2026-05-09 11:00 | 60.74616 | -150.96395 | 28448 ft | 411 kts | 224° |
| 2026-05-09 11:00 | 60.72631 | -151.00595 | 28905 ft | 411 kts | 221° |
| 2026-05-09 11:00 | 60.70604 | -151.04737 | 29330 ft | 413 kts | 221° |
| 2026-05-09 11:01 | 60.68509 | -151.08770 | 29690 ft | 416 kts | 219° |
| 2026-05-09 11:01 | 60.66364 | -151.12785 | 29844 ft | 422 kts | 219° |
| 2026-05-09 11:01 | 60.64217 | -151.16783 | 30137 ft | 425 kts | 219° |
| 2026-05-09 11:01 | 60.62033 | -151.20855 | 30462 ft | 426 kts | 219° |
| 2026-05-09 11:02 | 60.59933 | -151.25125 | 30862 ft | 428 kts | 227° |
| 2026-05-09 11:02 | 60.58228 | -151.30120 | 31211 ft | 432 kts | 234° |
| 2026-05-09 11:02 | 60.56628 | -151.35303 | 31516 ft | 434 kts | 235° |
| 2026-05-09 11:02 | 60.55068 | -151.40567 | 31817 ft | 435 kts | 236° |
| 2026-05-09 11:03 | 60.53510 | -151.45845 | 32119 ft | 436 kts | 236° |
| 2026-05-09 11:03 | 60.51948 | -151.51026 | 32417 ft | 436 kts | 235° |
| 2026-05-09 11:03 | 60.50338 | -151.56251 | 32711 ft | 437 kts | 235° |
| 2026-05-09 11:03 | 60.48720 | -151.61471 | 33004 ft | 437 kts | 235° |
| 2026-05-09 11:04 | 60.47109 | -151.66689 | 33291 ft | 438 kts | 236° |
| 2026-05-09 11:04 | 60.45501 | -151.71933 | 33564 ft | 438 kts | 236° |
| 2026-05-09 11:04 | 60.43891 | -151.77182 | 33832 ft | 439 kts | 236° |
| 2026-05-09 11:04 | 60.42274 | -151.82428 | 34089 ft | 440 kts | 236° |
| 2026-05-09 11:05 | 60.40641 | -151.87693 | 34143 ft | 444 kts | 236° |
| 2026-05-09 11:05 | 60.37376 | -151.98184 | 34150 ft | 442 kts | 236° |
| 2026-05-09 11:06 | 60.34116 | -152.08634 | 34152 ft | 439 kts | 236° |
| 2026-05-09 11:06 | 60.30853 | -152.19033 | 34152 ft | 438 kts | 236° |
| 2026-05-09 11:07 | 60.27610 | -152.29326 | 34150 ft | 438 kts | 236° |
| 2026-05-09 11:07 | 60.24332 | -152.39680 | 34148 ft | 438 kts | 235° |
| 2026-05-09 11:08 | 60.21056 | -152.50021 | 34141 ft | 438 kts | 236° |
| 2026-05-09 11:08 | 60.17846 | -152.60456 | 34243 ft | 439 kts | 236° |
| 2026-05-09 11:08 | 60.16236 | -152.65690 | 34470 ft | 441 kts | 236° |
| 2026-05-09 11:09 | 60.14631 | -152.70847 | 34692 ft | 442 kts | 236° |
| 2026-05-09 11:09 | 60.12991 | -152.76070 | 34930 ft | 443 kts | 236° |
| 2026-05-09 11:09 | 60.11351 | -152.81287 | 35152 ft | 444 kts | 236° |
| 2026-05-09 11:09 | 60.09707 | -152.86526 | 35384 ft | 444 kts | 236° |
| 2026-05-09 11:10 | 60.08060 | -152.91775 | 35536 ft | 446 kts | 236° |
| 2026-05-09 11:10 | 60.04723 | -153.02365 | 35548 ft | 452 kts | 236° |
| 2026-05-09 11:11 | 60.01386 | -153.12891 | 35550 ft | 449 kts | 236° |
| 2026-05-09 11:11 | 59.98060 | -153.23344 | 35552 ft | 443 kts | 237° |
| 2026-05-09 11:12 | 59.94749 | -153.33699 | 35555 ft | 442 kts | 237° |
| 2026-05-09 11:12 | 59.91435 | -153.44014 | 35557 ft | 441 kts | 237° |
| 2026-05-09 11:13 | 59.88142 | -153.54225 | 35560 ft | 441 kts | 236° |
| 2026-05-09 11:13 | 59.84814 | -153.64496 | 35562 ft | 442 kts | 236° |
| 2026-05-09 11:14 | 59.81478 | -153.74750 | 35565 ft | 442 kts | 236° |
| 2026-05-09 11:14 | 59.78132 | -153.84986 | 35568 ft | 442 kts | 236° |
| 2026-05-09 11:15 | 59.74800 | -153.95136 | 35571 ft | 442 kts | 236° |
| 2026-05-09 11:15 | 59.71438 | -154.05334 | 35577 ft | 442 kts | 236° |
| 2026-05-09 11:16 | 59.68068 | -154.15507 | 35580 ft | 443 kts | 236° |
| 2026-05-09 11:16 | 59.64683 | -154.25686 | 35580 ft | 443 kts | 236° |
| 2026-05-09 11:17 | 59.61314 | -154.35772 | 35581 ft | 442 kts | 236° |
| 2026-05-09 11:17 | 59.57918 | -154.45893 | 35582 ft | 442 kts | 236° |
| 2026-05-09 11:18 | 59.54510 | -154.56007 | 35583 ft | 443 kts | 236° |
| 2026-05-09 11:18 | 59.50987 | -154.65976 | 35584 ft | 443 kts | 234° |
| 2026-05-09 11:19 | 59.47409 | -154.75740 | 35585 ft | 443 kts | 235° |
| 2026-05-09 11:19 | 59.43854 | -154.85647 | 35586 ft | 443 kts | 235° |
| 2026-05-09 11:20 | 59.40286 | -154.95530 | 35587 ft | 444 kts | 235° |
| 2026-05-09 11:20 | 59.36690 | -155.05377 | 35588 ft | 444 kts | 235° |
| 2026-05-09 11:21 | 59.33094 | -155.15226 | 35591 ft | 444 kts | 235° |
| 2026-05-09 11:21 | 59.29515 | -155.24987 | 35593 ft | 445 kts | 235° |
| 2026-05-09 11:22 | 59.25895 | -155.34805 | 35594 ft | 445 kts | 235° |
| 2026-05-09 11:22 | 59.22268 | -155.44610 | 35596 ft | 445 kts | 235° |
| 2026-05-09 11:23 | 59.18631 | -155.54400 | 35597 ft | 445 kts | 235° |
| 2026-05-09 11:23 | 59.15015 | -155.64090 | 35598 ft | 445 kts | 235° |
| 2026-05-09 11:24 | 59.11368 | -155.73827 | 35598 ft | 445 kts | 235° |
| 2026-05-09 11:24 | 59.07716 | -155.83537 | 35597 ft | 445 kts | 235° |
| 2026-05-09 11:25 | 59.04051 | -155.93239 | 35597 ft | 445 kts | 235° |
| 2026-05-09 11:25 | 59.00378 | -156.02924 | 35596 ft | 446 kts | 235° |
| 2026-05-09 11:26 | 58.96712 | -156.12553 | 35595 ft | 448 kts | 235° |
| 2026-05-09 11:26 | 58.93006 | -156.22244 | 35591 ft | 447 kts | 235° |
| 2026-05-09 11:27 | 58.89296 | -156.31905 | 35587 ft | 447 kts | 235° |
| 2026-05-09 11:27 | 58.85586 | -156.41529 | 35584 ft | 447 kts | 235° |
| 2026-05-09 11:28 | 58.81888 | -156.51084 | 35581 ft | 447 kts | 235° |
| 2026-05-09 11:28 | 58.78155 | -156.60687 | 35578 ft | 447 kts | 235° |
| 2026-05-09 11:29 | 58.74412 | -156.70271 | 35577 ft | 448 kts | 235° |
| 2026-05-09 11:29 | 58.70407 | -156.79353 | 35579 ft | 449 kts | 229° |
| 2026-05-09 11:30 | 58.66073 | -156.88018 | 35577 ft | 450 kts | 228° |
| 2026-05-09 11:30 | 58.61714 | -156.96617 | 35577 ft | 450 kts | 228° |
| 2026-05-09 11:31 | 58.57358 | -157.05237 | 35578 ft | 450 kts | 228° |
| 2026-05-09 11:31 | 58.53022 | -157.13780 | 35580 ft | 450 kts | 228° |
| 2026-05-09 11:32 | 58.48650 | -157.22345 | 35583 ft | 450 kts | 228° |
| 2026-05-09 11:32 | 58.44270 | -157.30902 | 35586 ft | 451 kts | 228° |
| 2026-05-09 11:33 | 58.39883 | -157.39440 | 35591 ft | 450 kts | 228° |
| 2026-05-09 11:33 | 58.33328 | -157.52136 | 35597 ft | 450 kts | 228° |
| 2026-05-09 11:34 | 58.28928 | -157.60620 | 35604 ft | 450 kts | 228° |
| 2026-05-09 11:34 | 58.24521 | -157.69082 | 35612 ft | 451 kts | 228° |
| 2026-05-09 11:35 | 58.20136 | -157.77474 | 35616 ft | 451 kts | 228° |
| 2026-05-09 11:35 | 58.15717 | -157.85896 | 35619 ft | 450 kts | 228° |
| 2026-05-09 11:36 | 58.11298 | -157.94290 | 35623 ft | 451 kts | 228° |
| 2026-05-09 11:36 | 58.06866 | -158.02677 | 35625 ft | 451 kts | 228° |
| 2026-05-09 11:37 | 58.02428 | -158.11042 | 35627 ft | 451 kts | 228° |
| 2026-05-09 11:37 | 57.98012 | -158.19329 | 35629 ft | 451 kts | 227° |
| 2026-05-09 11:38 | 57.93565 | -158.27653 | 35633 ft | 451 kts | 227° |
| 2026-05-09 11:38 | 57.89108 | -158.35950 | 35638 ft | 451 kts | 227° |
| 2026-05-09 11:39 | 57.84679 | -158.44163 | 35640 ft | 451 kts | 227° |
| 2026-05-09 11:40 | 57.77977 | -158.56542 | 35643 ft | 451 kts | 227° |
| 2026-05-09 11:40 | 57.73501 | -158.64768 | 35650 ft | 451 kts | 227° |
| 2026-05-09 11:41 | 57.69022 | -158.72974 | 35662 ft | 451 kts | 227° |
| 2026-05-09 11:41 | 57.64560 | -158.81116 | 35666 ft | 451 kts | 227° |
| 2026-05-09 11:42 | 57.60067 | -158.89284 | 35668 ft | 451 kts | 227° |
| 2026-05-09 11:42 | 57.55565 | -158.97441 | 35664 ft | 451 kts | 227° |
| 2026-05-09 11:43 | 57.51055 | -159.05581 | 35663 ft | 452 kts | 227° |
| 2026-05-09 11:43 | 57.46570 | -159.13648 | 35672 ft | 452 kts | 227° |
| 2026-05-09 11:44 | 57.42046 | -159.21755 | 35674 ft | 452 kts | 227° |
| 2026-05-09 11:44 | 57.37516 | -159.29843 | 35676 ft | 452 kts | 227° |
| 2026-05-09 11:45 | 57.33016 | -159.37849 | 35677 ft | 452 kts | 226° |
| 2026-05-09 11:45 | 57.28476 | -159.45897 | 35677 ft | 452 kts | 226° |
| 2026-05-09 11:46 | 57.23929 | -159.53930 | 35677 ft | 452 kts | 226° |
| 2026-05-09 11:46 | 57.19375 | -159.61945 | 35677 ft | 452 kts | 226° |
| 2026-05-09 11:47 | 57.14848 | -159.69883 | 35678 ft | 452 kts | 226° |
| 2026-05-09 11:47 | 57.10290 | -159.77848 | 35678 ft | 452 kts | 226° |
| 2026-05-09 11:48 | 57.05730 | -159.85790 | 35679 ft | 452 kts | 226° |
| 2026-05-09 11:48 | 57.01160 | -159.93718 | 35679 ft | 452 kts | 226° |
| 2026-05-09 11:49 | 56.96589 | -160.01622 | 35679 ft | 452 kts | 226° |
| 2026-05-09 11:49 | 56.92034 | -160.09471 | 35676 ft | 453 kts | 226° |
| 2026-05-09 11:50 | 56.87435 | -160.17367 | 35674 ft | 453 kts | 226° |
| 2026-05-09 11:50 | 56.82832 | -160.25236 | 35675 ft | 453 kts | 226° |
| 2026-05-09 11:51 | 56.78235 | -160.33075 | 35676 ft | 453 kts | 226° |
| 2026-05-09 11:51 | 56.73666 | -160.40864 | 35679 ft | 453 kts | 225° |
| 2026-05-09 11:52 | 56.69059 | -160.48683 | 35684 ft | 453 kts | 225° |
| 2026-05-09 11:52 | 56.64444 | -160.56482 | 35691 ft | 453 kts | 225° |
| 2026-05-09 11:53 | 56.59824 | -160.64268 | 35569 ft | 454 kts | 225° |
| 2026-05-09 11:53 | 56.57553 | -160.68083 | 35000 ft | 446 kts | 225° |
| 2026-05-09 11:53 | 56.55314 | -160.71831 | 34500 ft | 432 kts | 225° |
| 2026-05-09 11:53 | 56.53138 | -160.75470 | 34020 ft | 419 kts | 226° |
| 2026-05-09 11:54 | 56.50975 | -160.79092 | 33550 ft | 429 kts | 226° |
| 2026-05-09 11:54 | 56.48757 | -160.82813 | 33062 ft | 440 kts | 225° |
| 2026-05-09 11:54 | 56.46484 | -160.86610 | 32562 ft | 449 kts | 225° |
| 2026-05-09 11:54 | 56.44174 | -160.90448 | 32053 ft | 452 kts | 225° |
| 2026-05-09 11:55 | 56.41854 | -160.94289 | 31545 ft | 454 kts | 225° |
| 2026-05-09 11:56 | 56.30728 | -161.12681 | 29108 ft | 430 kts | 225° |
| 2026-05-09 11:56 | 56.28536 | -161.16276 | 28628 ft | 425 kts | 225° |
| 2026-05-09 11:56 | 56.26363 | -161.19837 | 28155 ft | 420 kts | 225° |
| 2026-05-09 11:57 | 56.24214 | -161.23359 | 27686 ft | 416 kts | 225° |
| 2026-05-09 11:57 | 56.22086 | -161.26845 | 27221 ft | 412 kts | 224° |
| 2026-05-09 11:57 | 56.20006 | -161.30247 | 26767 ft | 408 kts | 224° |
| 2026-05-09 11:57 | 56.17915 | -161.33659 | 26310 ft | 404 kts | 224° |
| 2026-05-09 11:58 | 56.15842 | -161.37035 | 25858 ft | 401 kts | 224° |
| 2026-05-09 11:58 | 56.13786 | -161.40377 | 25409 ft | 397 kts | 224° |
| 2026-05-09 11:58 | 56.11745 | -161.43693 | 24966 ft | 397 kts | 224° |
| 2026-05-09 11:58 | 56.09661 | -161.47077 | 24511 ft | 405 kts | 224° |
| 2026-05-09 11:59 | 56.07580 | -161.50446 | 24057 ft | 401 kts | 224° |
| 2026-05-09 11:59 | 56.05547 | -161.53729 | 23614 ft | 397 kts | 224° |
| 2026-05-09 11:59 | 56.03511 | -161.57013 | 23171 ft | 393 kts | 224° |
| 2026-05-09 11:59 | 56.01492 | -161.60267 | 22732 ft | 389 kts | 224° |
| 2026-05-09 12:00 | 55.99492 | -161.63487 | 22297 ft | 385 kts | 224° |
| 2026-05-09 12:00 | 55.97511 | -161.66672 | 21865 ft | 381 kts | 224° |
| 2026-05-09 12:00 | 55.95549 | -161.69821 | 21439 ft | 378 kts | 224° |
| 2026-05-09 12:00 | 55.93603 | -161.72939 | 21016 ft | 374 kts | 224° |
| 2026-05-09 12:01 | 55.91677 | -161.76021 | 20597 ft | 370 kts | 224° |
| 2026-05-09 12:01 | 55.89794 | -161.79028 | 20189 ft | 366 kts | 224° |
| 2026-05-09 12:01 | 55.87900 | -161.82043 | 19779 ft | 365 kts | 224° |
| 2026-05-09 12:01 | 55.85996 | -161.85075 | 19368 ft | 369 kts | 224° |
| 2026-05-09 12:02 | 55.84084 | -161.88117 | 18952 ft | 368 kts | 224° |
| 2026-05-09 12:02 | 55.82186 | -161.91134 | 18540 ft | 366 kts | 224° |
| 2026-05-09 12:02 | 55.80290 | -161.94142 | 18130 ft | 364 kts | 224° |
| 2026-05-09 12:02 | 55.78274 | -161.96853 | 17733 ft | 364 kts | 212° |
| 2026-05-09 12:03 | 55.75941 | -161.98588 | 17331 ft | 365 kts | 196° |
| 2026-05-09 12:03 | 55.73427 | -161.99140 | 16920 ft | 365 kts | 179° |
| 2026-05-09 12:03 | 55.70896 | -161.98747 | 16498 ft | 365 kts | 174° |
| 2026-05-09 12:03 | 55.68409 | -161.98212 | 16081 ft | 363 kts | 173° |
| 2026-05-09 12:04 | 55.65925 | -161.97631 | 15670 ft | 357 kts | 173° |
| 2026-05-09 12:04 | 55.63478 | -161.97077 | 15268 ft | 352 kts | 174° |
| 2026-05-09 12:04 | 55.61070 | -161.96566 | 14874 ft | 346 kts | 174° |
| 2026-05-09 12:04 | 55.58685 | -161.96079 | 14486 ft | 347 kts | 174° |
| 2026-05-09 12:05 | 55.56271 | -161.95584 | 14092 ft | 350 kts | 174° |
| 2026-05-09 12:05 | 55.53857 | -161.95079 | 13697 ft | 350 kts | 174° |
| 2026-05-09 12:05 | 55.51440 | -161.94567 | 13302 ft | 349 kts | 174° |
| 2026-05-09 12:05 | 55.49054 | -161.94061 | 12910 ft | 342 kts | 174° |
| 2026-05-09 12:06 | 55.46748 | -161.93577 | 12533 ft | 335 kts | 174° |
| 2026-05-09 12:06 | 55.44443 | -161.93096 | 12183 ft | 334 kts | 174° |
| 2026-05-09 12:06 | 55.42168 | -161.92623 | 12054 ft | 322 kts | 174° |
| 2026-05-09 12:06 | 55.40004 | -161.92170 | 12009 ft | 304 kts | 174° |
| 2026-05-09 12:07 | 55.37965 | -161.91744 | 11990 ft | 289 kts | 174° |
| 2026-05-09 12:07 | 55.36015 | -161.91337 | 11866 ft | 277 kts | 174° |
| 2026-05-09 12:07 | 55.34147 | -161.90949 | 11781 ft | 264 kts | 174° |
| 2026-05-09 12:07 | 55.32367 | -161.90581 | 11534 ft | 259 kts | 175° |
| 2026-05-09 12:08 | 55.30616 | -161.90949 | 11134 ft | 255 kts | 207° |
| 2026-05-09 12:08 | 55.29157 | -161.92642 | 10835 ft | 249 kts | 220° |
| 2026-05-09 12:08 | 55.27807 | -161.94526 | 10531 ft | 247 kts | 221° |
| 2026-05-09 12:08 | 55.26487 | -161.96432 | 10213 ft | 245 kts | 222° |
| 2026-05-09 12:09 | 55.25172 | -161.98323 | 9893 ft | 244 kts | 221° |
| 2026-05-09 12:09 | 55.23857 | -162.00190 | 9575 ft | 243 kts | 221° |
| 2026-05-09 12:09 | 55.22544 | -162.02039 | 9248 ft | 242 kts | 221° |
| 2026-05-09 12:10 | 55.18655 | -162.07505 | 8304 ft | 238 kts | 221° |
| 2026-05-09 12:10 | 55.17367 | -162.09315 | 7998 ft | 237 kts | 221° |
| 2026-05-09 12:10 | 55.16086 | -162.11113 | 7691 ft | 235 kts | 221° |
| 2026-05-09 12:11 | 55.14815 | -162.12895 | 7385 ft | 234 kts | 221° |
| 2026-05-09 12:11 | 55.13548 | -162.14672 | 7080 ft | 233 kts | 221° |
| 2026-05-09 12:11 | 55.12286 | -162.16438 | 6776 ft | 232 kts | 221° |
| 2026-05-09 12:11 | 55.11032 | -162.18193 | 6476 ft | 230 kts | 220° |
| 2026-05-09 12:12 | 55.09784 | -162.19937 | 6174 ft | 229 kts | 220° |
| 2026-05-09 12:12 | 55.08559 | -162.21647 | 5876 ft | 228 kts | 220° |
| 2026-05-09 12:12 | 55.07323 | -162.23370 | 5572 ft | 227 kts | 220° |
| 2026-05-09 12:12 | 55.06093 | -162.25085 | 5267 ft | 226 kts | 220° |
| 2026-05-09 12:13 | 55.04868 | -162.26793 | 4963 ft | 225 kts | 220° |
| 2026-05-09 12:13 | 55.03649 | -162.28492 | 4660 ft | 224 kts | 221° |
| 2026-05-09 12:13 | 55.02733 | -162.30620 | 4267 ft | 221 kts | 252° |
| 2026-05-09 12:13 | 55.02372 | -162.33181 | 4006 ft | 216 kts | 261° |
| 2026-05-09 12:14 | 55.02080 | -162.35687 | 3891 ft | 207 kts | 261° |
| 2026-05-09 12:14 | 55.01805 | -162.38111 | 3830 ft | 206 kts | 261° |
| 2026-05-09 12:14 | 55.01527 | -162.40551 | 3793 ft | 204 kts | 261° |
| 2026-05-09 12:14 | 55.01250 | -162.42957 | 3781 ft | 197 kts | 261° |
| 2026-05-09 12:15 | 55.00987 | -162.45195 | 3770 ft | 181 kts | 261° |
| 2026-05-09 12:15 | 55.00740 | -162.47302 | 3785 ft | 174 kts | 261° |
| 2026-05-09 12:15 | 55.00504 | -162.49339 | 3790 ft | 169 kts | 261° |
| 2026-05-09 12:15 | 55.00274 | -162.51319 | 3800 ft | 164 kts | 261° |
| 2026-05-09 12:16 | 55.00053 | -162.53217 | 3796 ft | 162 kts | 262° |
| 2026-05-09 12:16 | 54.99828 | -162.55153 | 3798 ft | 164 kts | 262° |
| 2026-05-09 12:16 | 54.99698 | -162.57116 | 3734 ft | 163 kts | 282° |
| 2026-05-09 12:16 | 55.00315 | -162.58632 | 3607 ft | 157 kts | 332° |
| 2026-05-09 12:17 | 55.01318 | -162.59369 | 3509 ft | 156 kts | 338° |
| 2026-05-09 12:17 | 55.02295 | -162.60033 | 3360 ft | 146 kts | 339° |
| 2026-05-09 12:17 | 55.03236 | -162.60672 | 3221 ft | 145 kts | 339° |
| 2026-05-09 12:17 | 55.04173 | -162.61311 | 3079 ft | 144 kts | 339° |
| 2026-05-09 12:18 | 55.05083 | -162.61935 | 2937 ft | 139 kts | 339° |
| 2026-05-09 12:18 | 55.05973 | -162.62546 | 2786 ft | 136 kts | 338° |
| 2026-05-09 12:18 | 55.06845 | -162.63146 | 2646 ft | 134 kts | 338° |
| 2026-05-09 12:18 | 55.07709 | -162.63741 | 2513 ft | 133 kts | 338° |
| 2026-05-09 12:19 | 55.08568 | -162.64332 | 2380 ft | 132 kts | 338° |
| 2026-05-09 12:19 | 55.09136 | -162.64724 | 2286 ft | 133 kts | 338° |
| 2026-05-09 12:19 | 55.10288 | -162.65519 | 2048 ft | 133 kts | 338° |
| 2026-05-09 12:19 | 55.11143 | -162.66109 | 1874 ft | 131 kts | 338° |
| 2026-05-09 12:20 | 55.11978 | -162.66686 | 1707 ft | 130 kts | 338° |
| 2026-05-09 12:20 | 55.12817 | -162.67265 | 1552 ft | 130 kts | 336° |
| 2026-05-09 12:20 | 55.13659 | -162.67862 | 1350 ft | 130 kts | 336° |
| 2026-05-09 12:20 | 55.14504 | -162.68461 | 1089 ft | 134 kts | 337° |
| 2026-05-09 12:21 | 55.15384 | -162.69063 | 876 ft | 135 kts | 337° |
| 2026-05-09 12:21 | 55.15960 | -162.69454 | 785 ft | 133 kts | 338° |
| 2026-05-09 12:21 | 55.16815 | -162.70040 | 630 ft | 132 kts | 337° |
| 2026-05-09 12:21 | 55.17676 | -162.70617 | 484 ft | 134 kts | 338° |
| 2026-05-09 12:22 | 55.18839 | -162.71418 | 288 ft | 136 kts | 337° |
| 2026-05-09 12:22 | 55.19718 | -162.72033 | 148 ft | 135 kts | 337° |
| 2026-05-09 12:22 | 55.20519 | -162.72598 | 108 ft | 102 kts | 338° |
| 2026-05-09 12:22 | 55.20882 | -162.72856 | 107 ft | 65 kts | 338° |
| 2026-05-09 12:23 | 55.21145 | -162.73039 | 107 ft | 33 kts | 338° |
| 2026-05-09 12:23 | 55.21336 | -162.73174 | 107 ft | 24 kts | 339° |
| 2026-05-09 12:23 | 55.21405 | -162.73232 | 107 ft | 9 kts | 328° |
| 2026-05-09 12:23 | 55.21450 | -162.73268 | 107 ft | 5 kts | 41° |
| 2026-05-09 12:24 | 55.21385 | -162.73201 | 107 ft | 23 kts | 158° |
| 2026-05-09 12:24 | 55.21169 | -162.73048 | 107 ft | 43 kts | 158° |
| 2026-05-09 12:24 | 55.20969 | -162.72910 | 107 ft | 49 kts | 158° |
| 2026-05-09 12:24 | 55.20660 | -162.72696 | 107 ft | 45 kts | 158° |
| 2026-05-09 12:25 | 55.20300 | -162.72446 | 107 ft | 37 kts | 158° |
| 2026-05-09 12:25 | 55.20200 | -162.72375 | 107 ft | 21 kts | 156° |
| 2026-05-09 12:25 | 55.20166 | -162.72123 | 107 ft | 7 kts | 70° |
| 2026-05-09 12:25 | 55.20183 | -162.72073 | 107 ft | 9 kts | 29° |
| 2026-05-09 12:26 | 55.20221 | -162.72021 | 107 ft | 1 kts | 64° |
| 2026-05-09 12:26 | 55.20222 | -162.72021 | 107 ft | 0 kts | 64° |